createdAt,value
2022-09-17T00:00:59.082Z,11.07
2022-09-17T00:03:30.850Z,11.14
2022-09-17T00:06:03.171Z,11.11
2022-09-17T00:08:34.947Z,11.13
2022-09-17T00:11:06.640Z,11.15
2022-09-17T00:13:38.567Z,11.17
2022-09-17T00:16:10.140Z,11.15
2022-09-17T00:18:42.251Z,11.19
2022-09-17T00:21:13.707Z,11.16
2022-09-17T00:23:45.521Z,11.20
2022-09-17T00:26:17.005Z,11.19
2022-09-17T00:28:49.762Z,11.22
2022-09-17T00:31:21.247Z,11.23
2022-09-17T00:33:53.003Z,11.23
2022-09-17T00:36:24.499Z,11.24
2022-09-17T00:38:56.021Z,11.25
2022-09-17T00:41:27.558Z,11.24
2022-09-17T00:43:59.550Z,11.28
2022-09-17T00:46:31.523Z,11.31
2022-09-17T00:49:03.550Z,11.27
2022-09-17T00:51:35.036Z,11.27
2022-09-17T00:54:07.197Z,11.28
2022-09-17T00:56:38.647Z,11.25
2022-09-17T00:59:10.467Z,11.34
2022-09-17T01:01:41.972Z,11.34
2022-09-17T01:04:13.823Z,11.34
2022-09-17T01:06:45.272Z,11.33
2022-09-17T01:09:17.231Z,11.39
2022-09-17T01:11:48.688Z,11.38
2022-09-17T01:14:21.074Z,11.40
2022-09-17T01:16:52.708Z,11.45
2022-09-17T01:19:25.429Z,11.40
2022-09-17T01:21:56.889Z,11.42
2022-09-17T01:24:29.241Z,11.38
2022-09-17T01:27:00.700Z,11.38
2022-09-17T01:29:32.585Z,11.37
2022-09-17T01:32:04.033Z,11.40
2022-09-17T01:34:35.835Z,11.44
2022-09-17T01:37:07.281Z,11.33
2022-09-17T01:39:39.221Z,11.45
2022-09-17T01:42:11.252Z,11.41
2022-09-17T01:44:43.050Z,11.40
2022-09-17T01:47:18.848Z,11.39
2022-09-17T01:49:52.689Z,11.39
2022-09-17T01:52:24.161Z,11.40
2022-09-17T01:54:55.919Z,11.34
2022-09-17T01:57:27.372Z,11.37
2022-09-17T01:59:59.820Z,11.40
2022-09-17T02:02:31.308Z,11.42
2022-09-17T02:05:03.095Z,11.39
2022-09-17T02:07:34.547Z,11.41
2022-09-17T02:10:06.340Z,11.44
2022-09-17T02:12:37.805Z,11.45
2022-09-17T02:15:09.619Z,11.50
2022-09-17T02:17:41.075Z,11.53
2022-09-17T02:20:12.940Z,11.53
2022-09-17T02:22:44.632Z,11.54
2022-09-17T02:25:16.494Z,11.49
2022-09-17T02:27:47.965Z,11.54
2022-09-17T02:30:19.897Z,11.54
2022-09-17T02:32:51.532Z,11.54
2022-09-17T02:35:23.267Z,11.58
2022-09-17T02:37:54.710Z,11.60
2022-09-17T02:40:28.170Z,11.62
2022-09-17T02:42:59.773Z,11.59
2022-09-17T02:45:31.729Z,11.62
2022-09-17T02:48:03.254Z,11.60
2022-09-17T02:50:35.006Z,11.64
2022-09-17T02:53:06.665Z,11.57
2022-09-17T02:55:38.421Z,11.65
2022-09-17T02:58:09.882Z,11.66
2022-09-17T03:00:41.767Z,11.68
2022-09-17T03:03:13.664Z,11.71
2022-09-17T03:05:45.781Z,11.70
2022-09-17T03:08:18.885Z,11.69
2022-09-17T03:10:50.342Z,11.72
2022-09-17T03:13:22.084Z,11.75
2022-09-17T03:15:53.579Z,11.73
2022-09-17T03:18:25.671Z,11.69
2022-09-17T03:20:57.523Z,11.72
2022-09-17T03:23:29.012Z,11.68
2022-09-17T03:26:00.963Z,11.66
2022-09-17T03:28:32.421Z,11.72
2022-09-17T03:31:06.120Z,11.70
2022-09-17T03:33:37.693Z,11.73
2022-09-17T03:36:09.504Z,11.72
2022-09-17T03:38:41.281Z,11.73
2022-09-17T03:41:12.770Z,11.69
2022-09-17T03:43:44.558Z,11.70
2022-09-17T03:46:16.063Z,11.72
2022-09-17T03:48:47.847Z,11.71
2022-09-17T03:51:19.302Z,11.69
2022-09-17T03:53:51.129Z,11.70
2022-09-17T03:56:22.646Z,11.71
2022-09-17T03:58:54.454Z,11.71
2022-09-17T04:01:25.943Z,11.68
2022-09-17T04:03:57.989Z,11.69
2022-09-17T04:06:29.534Z,11.67
2022-09-17T04:09:01.405Z,11.68
2022-09-17T04:11:32.923Z,11.72
2022-09-17T04:14:04.639Z,11.80
2022-09-17T04:16:36.162Z,11.79
2022-09-17T04:19:08.014Z,11.77
2022-09-17T04:21:39.479Z,11.78
2022-09-17T04:24:11.375Z,11.75
2022-09-17T04:26:42.829Z,11.73
2022-09-17T04:29:14.832Z,11.72
2022-09-17T04:31:46.356Z,11.72
2022-09-17T04:34:18.299Z,11.69
2022-09-17T04:36:49.746Z,11.71
2022-09-17T04:39:21.694Z,11.69
2022-09-17T04:41:53.165Z,11.69
2022-09-17T04:44:25.046Z,11.73
2022-09-17T04:46:56.584Z,11.75
2022-09-17T04:49:30.884Z,11.77
2022-09-17T04:52:02.864Z,11.79
2022-09-17T04:54:34.320Z,11.78
2022-09-17T04:57:06.192Z,11.80
2022-09-17T04:59:37.696Z,11.77
2022-09-17T05:02:09.502Z,11.78
2022-09-17T05:04:41.242Z,11.85
2022-09-17T05:07:13.968Z,11.85
2022-09-17T05:09:45.619Z,11.92
2022-09-17T05:12:17.378Z,11.86
2022-09-17T05:14:48.836Z,11.91
2022-09-17T05:17:20.613Z,11.87
2022-09-17T05:19:53.292Z,11.91
2022-09-17T05:22:25.132Z,11.95
2022-09-17T05:24:57.201Z,11.98
2022-09-17T05:27:29.199Z,11.99
2022-09-17T05:30:00.654Z,12.05
2022-09-17T05:32:32.435Z,12.07
2022-09-17T05:35:05.753Z,12.14
2022-09-17T05:37:37.841Z,12.26
2022-09-17T05:40:09.382Z,12.23
2022-09-17T05:42:41.419Z,12.37
2022-09-17T05:45:12.913Z,12.55
2022-09-17T05:47:44.411Z,12.74
2022-09-17T05:50:16.129Z,12.73
2022-09-17T05:52:47.910Z,12.71
2022-09-17T05:55:19.447Z,12.73
2022-09-17T05:57:51.284Z,12.74
2022-09-17T06:00:22.844Z,12.67
2022-09-17T06:02:54.519Z,12.48
2022-09-17T06:05:26.054Z,12.43
2022-09-17T06:07:57.552Z,12.40
2022-09-17T06:10:29.388Z,12.50
2022-09-17T06:13:01.338Z,12.51
2022-09-17T06:15:32.794Z,12.50
2022-09-17T06:18:04.608Z,12.70
2022-09-17T06:20:36.099Z,12.87
2022-09-17T06:23:11.655Z,12.92
2022-09-17T06:25:46.760Z,13.08
2022-09-17T06:28:18.556Z,13.05
2022-09-17T06:30:52.632Z,12.98
2022-09-17T06:33:24.201Z,12.99
2022-09-17T06:35:55.672Z,12.99
2022-09-17T06:38:27.481Z,13.10
2022-09-17T06:40:58.938Z,13.05
2022-09-17T06:43:30.695Z,12.83
2022-09-17T06:46:02.181Z,12.83
2022-09-17T06:48:33.833Z,12.79
2022-09-17T06:51:05.299Z,12.94
2022-09-17T06:53:37.877Z,12.98
2022-09-17T06:56:09.400Z,13.07
2022-09-17T06:58:42.228Z,13.09
2022-09-17T07:01:14.072Z,12.99
2022-09-17T07:03:45.692Z,13.01
2022-09-17T07:06:17.514Z,13.15
2022-09-17T07:08:48.961Z,13.34
2022-09-17T07:11:20.447Z,13.39
2022-09-17T07:13:52.161Z,13.44
2022-09-17T07:16:24.490Z,13.61
2022-09-17T07:18:55.995Z,13.81
2022-09-17T07:21:27.853Z,14.09
2022-09-17T07:24:06.264Z,13.92
2022-09-17T07:26:38.064Z,14.04
2022-09-17T07:29:09.734Z,13.83
2022-09-17T07:31:41.336Z,13.76
2022-09-17T07:34:12.834Z,13.81
2022-09-17T07:36:45.048Z,13.97
2022-09-17T07:39:16.516Z,14.21
2022-09-17T07:41:49.201Z,14.37
2022-09-17T07:44:22.301Z,14.58
2022-09-17T07:46:53.842Z,14.88
2022-09-17T07:49:25.367Z,14.89
2022-09-17T07:51:57.123Z,14.82
2022-09-17T07:54:29.024Z,14.72
2022-09-17T07:57:00.602Z,14.76
2022-09-17T07:59:32.182Z,14.91
2022-09-17T08:02:04.217Z,15.31
2022-09-17T08:04:35.786Z,15.15
2022-09-17T08:07:07.784Z,15.30
2022-09-17T08:09:39.384Z,15.41
2022-09-17T08:12:10.920Z,15.73
2022-09-17T08:14:42.829Z,15.37
2022-09-17T08:17:14.623Z,15.09
2022-09-17T08:19:46.109Z,15.26
2022-09-17T08:22:17.917Z,15.19
2022-09-17T08:24:49.697Z,15.43
2022-09-17T08:27:21.472Z,15.45
2022-09-17T08:29:53.027Z,15.73
2022-09-17T08:32:24.848Z,15.93
2022-09-17T08:34:58.343Z,15.30
2022-09-17T08:37:31.047Z,15.14
2022-09-17T08:40:02.653Z,15.19
2022-09-17T08:42:34.496Z,15.45
2022-09-17T08:45:05.962Z,15.40
2022-09-17T08:47:38.110Z,15.09
2022-09-17T08:50:09.590Z,15.30
2022-09-17T08:52:42.300Z,15.63
2022-09-17T08:55:15.197Z,15.19
2022-09-17T08:57:47.046Z,15.76
2022-09-17T09:00:18.680Z,16.12
2022-09-17T09:02:50.564Z,16.73
2022-09-17T09:05:22.795Z,16.39
2022-09-17T09:07:54.816Z,16.82
2022-09-17T09:10:26.277Z,16.25
2022-09-17T09:12:58.071Z,16.57
2022-09-17T09:15:30.406Z,16.50
2022-09-17T09:18:03.384Z,16.79
2022-09-17T09:20:35.301Z,16.47
2022-09-17T09:23:06.772Z,16.77
2022-09-17T09:25:38.545Z,17.73
2022-09-17T09:28:10.090Z,18.37
2022-09-17T09:30:42.025Z,18.31
2022-09-17T09:33:14.187Z,17.77
2022-09-17T09:35:46.012Z,17.40
2022-09-17T09:38:17.489Z,16.33
2022-09-17T09:40:48.975Z,16.34
2022-09-17T09:43:20.469Z,17.25
2022-09-17T09:45:52.268Z,17.57
2022-09-17T09:48:23.744Z,17.31
2022-09-17T09:51:06.279Z,15.99
2022-09-17T09:53:38.239Z,16.50
2022-09-17T09:56:10.226Z,16.45
2022-09-17T09:58:41.759Z,16.24
2022-09-17T10:01:13.598Z,15.53
2022-09-17T10:03:46.196Z,15.05
2022-09-17T10:06:18.113Z,14.75
2022-09-17T10:08:49.642Z,14.60
2022-09-17T10:11:22.669Z,14.82
2022-09-17T10:13:54.511Z,14.97
2022-09-17T10:16:26.425Z,16.32
2022-09-17T10:18:57.974Z,17.01
2022-09-17T10:21:30.190Z,17.22
2022-09-17T10:24:01.659Z,16.97
2022-09-17T10:26:33.140Z,16.65
2022-09-17T10:29:04.690Z,17.35
2022-09-17T10:31:36.231Z,17.81
2022-09-17T10:34:07.775Z,17.73
2022-09-17T10:36:39.833Z,17.16
2022-09-17T10:39:11.279Z,16.27
2022-09-17T10:41:42.893Z,16.62
2022-09-17T10:44:14.357Z,17.26
2022-09-17T10:46:46.114Z,16.80
2022-09-17T10:49:17.645Z,16.71
2022-09-17T10:51:49.484Z,16.54
2022-09-17T10:54:20.960Z,16.75
2022-09-17T10:56:52.646Z,16.52
2022-09-17T10:59:24.129Z,16.30
2022-09-17T11:01:55.785Z,16.51
2022-09-17T11:04:27.360Z,16.60
2022-09-17T11:06:59.205Z,16.91
2022-09-17T11:09:30.720Z,16.73
2022-09-17T11:12:02.191Z,16.88
2022-09-17T11:14:35.986Z,16.41
2022-09-17T11:17:07.855Z,15.83
2022-09-17T11:19:39.387Z,16.00
2022-09-17T11:22:10.849Z,16.53
2022-09-17T11:24:46.645Z,17.08
2022-09-17T11:27:18.600Z,17.13
2022-09-17T11:29:50.169Z,17.46
2022-09-17T11:32:22.088Z,17.44
2022-09-17T11:34:53.810Z,17.74
2022-09-17T11:37:25.309Z,17.45
2022-09-17T11:39:57.368Z,17.18
2022-09-17T11:42:29.304Z,17.03
2022-09-17T11:45:00.884Z,17.05
2022-09-17T11:47:32.696Z,17.05
2022-09-17T11:50:04.190Z,17.70
2022-09-17T11:52:36.048Z,17.72
2022-09-17T11:55:07.532Z,17.42
2022-09-17T11:57:39.353Z,17.36
2022-09-17T12:00:10.848Z,17.78
2022-09-17T12:02:42.905Z,18.58
2022-09-17T12:05:14.440Z,18.18
2022-09-17T12:07:46.228Z,18.86
2022-09-17T12:10:17.723Z,19.11
2022-09-17T12:12:50.686Z,19.04
2022-09-17T12:15:22.294Z,18.62
2022-09-17T12:18:08.763Z,18.99
2022-09-17T12:20:45.562Z,19.42
2022-09-17T12:23:17.060Z,18.48
2022-09-17T12:25:49.318Z,18.20
2022-09-17T12:28:20.810Z,17.56
2022-09-17T12:30:52.725Z,17.33
2022-09-17T12:33:24.256Z,18.00
2022-09-17T12:36:04.927Z,18.29
2022-09-17T12:38:37.503Z,17.35
2022-09-17T12:41:09.396Z,18.46
2022-09-17T12:43:40.965Z,18.60
2022-09-17T12:46:12.839Z,18.61
2022-09-17T12:48:44.362Z,18.81
2022-09-17T12:51:18.468Z,18.52
2022-09-17T12:53:49.957Z,18.29
2022-09-17T12:56:21.772Z,17.54
2022-09-17T12:58:53.251Z,17.79
2022-09-17T13:01:25.602Z,17.44
2022-09-17T13:03:57.087Z,16.80
2022-09-17T13:06:29.048Z,16.72
2022-09-17T13:09:00.565Z,16.75
2022-09-17T13:11:32.397Z,16.74
2022-09-17T13:14:03.871Z,17.46
2022-09-17T13:16:35.801Z,17.71
2022-09-17T13:19:23.082Z,17.56
2022-09-17T13:21:56.007Z,17.87
2022-09-17T13:24:29.741Z,17.91
2022-09-17T13:27:02.337Z,18.00
2022-09-17T13:29:33.828Z,17.78
2022-09-17T13:32:05.642Z,17.78
2022-09-17T13:34:37.132Z,17.20
2022-09-17T13:37:09.284Z,16.66
2022-09-17T13:39:40.769Z,16.75
2022-09-17T13:42:12.636Z,16.60
2022-09-17T13:44:44.137Z,16.90
2022-09-17T13:47:16.003Z,17.93
2022-09-17T13:49:47.545Z,17.86
2022-09-17T13:52:19.465Z,17.64
2022-09-17T13:54:51.071Z,17.52
2022-09-17T13:57:23.052Z,16.87
2022-09-17T13:59:54.605Z,17.30
2022-09-17T14:02:30.887Z,17.07
2022-09-17T14:05:02.653Z,17.99
2022-09-17T14:07:34.587Z,18.23
2022-09-17T14:10:06.078Z,18.09
2022-09-17T14:12:38.049Z,18.29
2022-09-17T14:15:09.558Z,18.47
2022-09-17T14:17:41.503Z,18.72
2022-09-17T14:20:13.079Z,18.54
2022-09-17T14:22:44.885Z,18.89
2022-09-17T14:25:16.389Z,18.74
2022-09-17T14:27:48.443Z,18.55
2022-09-17T14:30:20.013Z,17.67
2022-09-17T14:32:51.950Z,17.48
2022-09-17T14:35:23.582Z,17.56
2022-09-17T14:37:55.096Z,17.24
2022-09-17T14:40:26.700Z,17.02
2022-09-17T14:42:58.224Z,16.90
2022-09-17T14:45:29.744Z,16.84
2022-09-17T14:48:01.502Z,16.71
2022-09-17T14:50:33.045Z,16.92
2022-09-17T14:53:04.845Z,17.26
2022-09-17T14:55:36.344Z,18.00
2022-09-17T14:58:08.179Z,18.36
2022-09-17T15:00:40.431Z,18.76
2022-09-17T15:03:12.103Z,18.41
2022-09-17T15:05:44.008Z,18.56
2022-09-17T15:08:15.674Z,18.22
2022-09-17T15:10:48.333Z,18.32
2022-09-17T15:13:19.819Z,18.25
2022-09-17T15:15:51.347Z,17.71
2022-09-17T15:18:22.890Z,16.97
2022-09-17T15:20:54.463Z,16.54
2022-09-17T15:23:26.020Z,16.58
2022-09-17T15:25:58.152Z,16.03
2022-09-17T15:28:29.849Z,15.90
2022-09-17T15:31:01.825Z,15.54
2022-09-17T15:33:33.373Z,15.42
2022-09-17T15:36:08.401Z,14.90
2022-09-17T15:38:41.479Z,14.61
2022-09-17T15:41:15.652Z,14.51
2022-09-17T15:43:49.587Z,14.44
2022-09-17T15:46:21.298Z,14.34
2022-09-17T15:48:52.828Z,14.28
2022-09-17T15:51:25.660Z,14.24
2022-09-17T15:53:57.200Z,14.05
2022-09-17T15:56:28.694Z,13.97
2022-09-17T15:59:00.350Z,14.04
2022-09-17T16:01:32.255Z,13.55
2022-09-17T16:04:03.739Z,13.86
2022-09-17T16:06:35.529Z,13.66
2022-09-17T16:09:07.020Z,13.58
2022-09-17T16:11:40.746Z,13.56
2022-09-17T16:14:12.254Z,13.45
2022-09-17T16:16:44.101Z,13.46
2022-09-17T16:19:15.607Z,13.53
2022-09-17T16:21:47.440Z,13.39
2022-09-17T16:24:18.948Z,13.56
2022-09-17T16:26:50.770Z,13.22
2022-09-17T16:29:22.932Z,12.44
2022-09-17T16:31:54.978Z,12.84
2022-09-17T16:34:26.520Z,12.83
2022-09-17T16:36:58.364Z,12.82
2022-09-17T16:39:29.850Z,12.85
2022-09-17T16:42:01.725Z,12.84
2022-09-17T16:44:34.195Z,12.92
2022-09-17T16:47:06.584Z,12.83
2022-09-17T16:49:38.130Z,12.68
2022-09-17T16:52:09.977Z,12.74
2022-09-17T16:54:41.492Z,12.69
2022-09-17T16:57:13.372Z,12.58
2022-09-17T16:59:44.870Z,12.45
2022-09-17T17:02:16.848Z,12.41
2022-09-17T17:04:48.408Z,12.24
2022-09-17T17:07:20.944Z,12.14
2022-09-17T17:09:52.435Z,12.26
2022-09-17T17:12:24.321Z,12.28
2022-09-17T17:14:56.315Z,12.16
2022-09-17T17:17:27.854Z,12.16
2022-09-17T17:19:59.558Z,12.09
2022-09-17T17:22:31.060Z,12.11
2022-09-17T17:25:02.937Z,12.01
2022-09-17T17:27:34.513Z,11.98
2022-09-17T17:30:07.073Z,11.98
2022-09-17T17:32:38.619Z,11.93
2022-09-17T17:35:10.438Z,11.88
2022-09-17T17:40:15.641Z,11.78
2022-09-17T17:42:47.518Z,11.89
2022-09-17T17:45:19.400Z,11.75
2022-09-17T17:47:50.931Z,11.73
2022-09-17T17:50:22.897Z,11.59
2022-09-17T17:52:54.393Z,11.55
2022-09-17T17:55:26.835Z,11.47
2022-09-17T17:58:01.299Z,11.61
2022-09-17T18:00:33.561Z,11.62
2022-09-17T18:03:05.124Z,11.69
2022-09-17T18:05:36.692Z,11.67
2022-09-17T18:08:08.193Z,11.66
2022-09-17T18:10:40.036Z,11.61
2022-09-17T18:13:11.527Z,11.52
2022-09-17T18:15:43.410Z,11.46
2022-09-17T18:18:14.940Z,11.34
2022-09-17T18:20:46.763Z,11.36
2022-09-17T18:23:18.259Z,11.28
2022-09-17T18:25:50.188Z,11.31
2022-09-17T18:28:21.695Z,11.25
2022-09-17T18:30:53.535Z,11.30
2022-09-17T18:33:25.060Z,11.30
2022-09-17T18:35:57.706Z,11.20
2022-09-17T18:38:29.171Z,11.12
2022-09-17T18:41:00.684Z,10.96
2022-09-17T18:43:32.242Z,10.90
2022-09-17T18:46:04.250Z,10.84
2022-09-17T18:48:36.793Z,10.73
2022-09-17T18:51:09.076Z,10.69
2022-09-17T18:53:40.743Z,10.61
2022-09-17T18:56:12.524Z,10.51
2022-09-17T18:58:44.054Z,10.38
2022-09-17T19:01:15.977Z,10.38
2022-09-17T19:03:48.496Z,10.35
2022-09-17T19:06:20.066Z,10.32
2022-09-17T19:08:51.903Z,10.28
2022-09-17T19:11:23.411Z,10.14
2022-09-17T19:13:55.013Z,10.17
2022-09-17T19:16:26.890Z,10.15
2022-09-17T19:18:58.805Z,10.18
2022-09-17T19:21:30.297Z,10.19
2022-09-17T19:24:03.691Z,10.16
2022-09-17T19:26:35.205Z,10.20
2022-09-17T19:29:08.396Z,10.23
2022-09-17T19:31:40.073Z,10.34
2022-09-17T19:34:12.053Z,10.26
2022-09-17T19:36:43.554Z,10.31
2022-09-17T19:39:15.492Z,10.32
2022-09-17T19:41:46.982Z,10.37
2022-09-17T19:44:18.790Z,10.36
2022-09-17T19:46:52.832Z,10.44
2022-09-17T19:49:24.748Z,10.44
2022-09-17T19:51:56.266Z,10.41
2022-09-17T19:54:28.280Z,10.41
2022-09-17T19:56:59.828Z,10.50
2022-09-17T19:59:31.723Z,10.48
2022-09-17T20:02:03.309Z,10.42
2022-09-17T20:04:35.419Z,10.48
2022-09-17T20:07:06.904Z,10.44
2022-09-17T20:09:38.693Z,10.49
2022-09-17T20:12:10.174Z,10.52
2022-09-17T20:14:43.106Z,10.49
2022-09-17T20:17:14.667Z,10.47
2022-09-17T20:19:46.505Z,10.50
2022-09-17T20:22:18.033Z,10.53
2022-09-17T20:24:51.132Z,10.41
2022-09-17T20:27:22.854Z,9.46
2022-09-17T20:29:54.667Z,10.43
2022-09-17T20:32:26.177Z,10.50
2022-09-17T20:34:58.228Z,10.44
2022-09-17T20:38:16.082Z,10.52
2022-09-17T20:40:21.438Z,10.55
2022-09-17T20:42:53.317Z,10.60
2022-09-17T20:45:24.807Z,10.59
2022-09-17T20:47:56.687Z,10.60
2022-09-17T20:50:28.180Z,10.56
2022-09-17T20:53:00.035Z,10.67
2022-09-17T20:55:31.614Z,10.68
2022-09-17T20:58:03.616Z,10.69
2022-09-17T21:00:35.735Z,10.74
2022-09-17T21:03:07.616Z,10.73
2022-09-17T21:05:39.103Z,10.76
2022-09-17T21:08:11.147Z,10.79
2022-09-17T21:10:42.647Z,10.89
2022-09-17T21:13:14.453Z,10.91
2022-09-17T21:15:45.956Z,10.85
2022-09-17T21:18:17.530Z,10.85
2022-09-17T21:20:49.006Z,10.85
2022-09-17T21:23:20.901Z,10.89
2022-09-17T21:25:52.445Z,10.87
2022-09-17T21:28:24.303Z,10.91
2022-09-17T21:30:55.835Z,10.94
2022-09-17T21:33:27.684Z,11.04
2022-09-17T21:35:59.169Z,11.08
2022-09-17T21:38:30.739Z,11.01
2022-09-17T21:41:02.250Z,11.03
2022-09-17T21:43:34.606Z,11.02
2022-09-17T21:46:06.229Z,10.92
2022-09-17T21:48:37.839Z,10.99
2022-09-17T21:51:09.386Z,10.97
2022-09-17T21:53:41.394Z,10.98
2022-09-17T21:56:12.876Z,10.93
2022-09-17T21:58:44.732Z,10.96
2022-09-17T22:01:19.290Z,10.98
2022-09-17T22:03:51.245Z,10.96
2022-09-17T22:06:22.721Z,10.90
2022-09-17T22:08:54.485Z,10.99
2022-09-17T22:11:26.010Z,10.93
2022-09-17T22:13:57.543Z,10.94
2022-09-17T22:16:32.175Z,10.90
2022-09-17T22:19:04.092Z,10.89
2022-09-17T22:21:36.061Z,10.87
2022-09-17T22:24:07.632Z,10.86
2022-09-17T22:26:39.174Z,10.88
2022-09-17T22:29:11.166Z,10.89
2022-09-17T22:31:42.785Z,10.93
2022-09-17T22:34:14.841Z,10.96
2022-09-17T22:36:46.423Z,10.98
2022-09-17T22:39:19.332Z,11.02
2022-09-17T22:41:51.086Z,10.98
2022-09-17T22:44:23.103Z,11.02
2022-09-17T22:46:54.805Z,11.07
2022-09-17T22:49:26.682Z,11.07
2022-09-17T22:51:58.192Z,11.03
2022-09-17T22:54:30.333Z,11.05
2022-09-17T22:57:01.820Z,11.03
2022-09-17T22:59:33.672Z,11.03
2022-09-17T23:02:05.199Z,11.08
2022-09-17T23:04:36.836Z,11.09
2022-09-17T23:07:08.710Z,11.09
2022-09-17T23:09:40.223Z,11.11
2022-09-17T23:12:11.697Z,11.04
2022-09-17T23:14:43.629Z,11.05
2022-09-17T23:17:15.184Z,11.08
2022-09-17T23:19:47.044Z,11.17
2022-09-17T23:22:20.883Z,11.18
2022-09-17T23:24:52.702Z,11.23
2022-09-17T23:27:24.190Z,11.21
2022-09-17T23:29:56.129Z,11.18
2022-09-17T23:32:27.612Z,11.22
2022-09-17T23:34:59.472Z,11.24
2022-09-17T23:37:31.339Z,11.19
2022-09-17T23:40:03.683Z,11.23
2022-09-17T23:42:35.529Z,11.20
2022-09-17T23:45:07.031Z,11.24
2022-09-17T23:47:38.523Z,11.26
2022-09-17T23:50:10.356Z,11.23
2022-09-17T23:52:41.850Z,11.21
2022-09-17T23:55:13.692Z,11.20
2022-09-17T23:57:45.294Z,11.20
